CheckWX is a tool to help pilots better visualize weather data.  It is not intended as a substitute for an official pre-flight weather briefing.

00:53:44 UTC

VGHS TAF
Dhaka
Dhaka, Bangladesh
TAF VGHS 102300Z 1100/1206 18010KT 3500 HZ SCT012 BKN100 BECMG 1104/1106 20015KT 4000 HZ SCT015 BKN10 TEMPO 1100/1118 23025KT 2500 RA/TSRA BKN008 FEW025CB OVC090 BECMG 1118/1120 18010KT 3500 HZ SCT012 BKN100 TEMP0 1120/1206 23025KT 2500 RA/TSRA BKN008 FEW025CB OVC090

Jul-11@
00:00 UTC

Jul-11 @ 00:00 UTC

Jul-11@
04:00 UTC

Jul-11 @ 04:00 UTC

TAF VGHS 102300Z 1100/1206 18010KT 3500 HZ SCT012 BKN100

Expired

Wind
  • 180° at 10 KTS
Conditions
Haze
Cloud Levels
  • Scattered at 1,200' AGL
  • Broken at 10,000' AGL

Jul-11@
00:00 UTC

Jul-11 @ 00:00 UTC

Jul-11@
18:00 UTC

Jul-11 @ 18:00 UTC

TEMPO 1100/1118 23025KT 2500 RA/TSRA BKN008 FEW025CB OVC090

Expired

Wind
  • 230° at 25 KTS
Conditions
Thunderstorm, Rain, Rain
Cloud Levels
  • Broken at 800' AGL
  • Few at 2,500' AGL
  • Overcast at 9,000' AGL

Jul-11@
04:00 UTC

Jul-11 @ 04:00 UTC

Jul-11@
18:00 UTC

Jul-11 @ 18:00 UTC

BECMG 1104/1106 20015KT 4000 HZ SCT015 BKN10

Expired

Wind
  • 200° at 15 KTS
Conditions
Haze
Cloud Levels
  • Scattered at 1,500' AGL

Jul-11@
18:00 UTC

Jul-11 @ 18:00 UTC

Jul-12@
06:00 UTC

Jul-12 @ 06:00 UTC

BECMG 1118/1120 18010KT 3500 HZ SCT012 BKN100 TEMP0 1120/1206 23025KT 2500 RA/TSRA BKN008 FEW025CB OVC090

Becoming

Becoming Conditions expected by Sat, Jul 11, 2020 @ 20:00 UTC

Wind
  • 180° at 10 KTS
Conditions
Haze, Thunderstorm, Rain, Rain
Cloud Levels
  • Scattered at 1,200' AGL
  • Broken at 10,000' AGL
  • Broken at 800' AGL